Time;durP1;ratioP1;P1;durP2;ratioP2;P2;SDS_P1;SDS_P2;PMS_P1;PMS_P2;Temp;Humidity;BMP_temperature;BMP_pressure;BME280_temperature;BME280_humidity;BME280_pressure;Samples;Min_cycle;Max_cycle;Signal;HPM_P1;HPM_P2
2022/08/19 00:00:34;;;;;;;;;;;;;;;;;;5133773;27;46839;-83
2022/08/19 00:03:00;;;;;;;;;;;;;;;;;;5132740;27;42292;-83
2022/08/19 00:05:27;;;;;;;;;;;;;;;;;;5140770;27;45362;-83
2022/08/19 00:07:53;;;;;;;;;;;;;;;;;;5141064;27;47276;-83
2022/08/19 00:10:19;;;;;;;;;;;;;;;;;;5136112;27;44659;-82
2022/08/19 00:12:46;;;;;;;;;;;;;;;;;;5144663;27;47731;-82
2022/08/19 00:15:12;;;;;;;;;;;;;;;;;;5147014;27;43705;-83
2022/08/19 00:17:38;;;;;;;;;;;;;;;;;;5141616;27;44348;-83
2022/08/19 00:20:10;;;;;;;;;;;;;;;;;;5136692;27;46637;-82
2022/08/19 00:22:36;;;;;;;;;;;;;;;;;;5156900;27;43746;-82
2022/08/19 00:25:02;;;;;;;;;;;;;;;;;;5154282;27;46613;-82
2022/08/19 00:27:29;;;;;;;;;;;;;;;;;;5135018;27;47084;-82
2022/08/19 00:29:55;;;;;;;;;;;;;;;;;;5150663;27;45314;-83
2022/08/19 00:32:21;;;;;;;;;;;;;;;;;;5139558;27;46366;-83
2022/08/19 00:34:48;;;;;;;;;;;;;;;;;;5141968;27;43711;-83
2022/08/19 00:37:14;;;;;;;;;;;;;;;;;;5133290;27;46687;-83
2022/08/19 00:39:40;;;;;;;;;;;;;;;;;;5141051;27;45369;-82
2022/08/19 00:42:06;;;;;;;;;;;;;;;;;;5133343;27;43651;-82
2022/08/19 00:44:33;;;;;;;;;;;;;;;;;;5130319;27;45705;-82
2022/08/19 00:46:59;;;;;;;;;;;;;;;;;;5137580;27;48205;-83
2022/08/19 00:49:26;;;;;;;;;;;;;;;;;;5148803;27;43839;-83
2022/08/19 00:51:52;;;;;;;;;;;;;;;;;;5129694;27;46418;-83
2022/08/19 00:54:19;;;;;;;;;;;;;;;;;;5129216;27;46984;-82
2022/08/19 00:56:45;;;;;;;;;;;;;;;;;;5140034;27;46272;-83
2022/08/19 00:59:11;;;;;;;;;;;;;;;;;;5133568;27;48172;-83
2022/08/19 01:01:37;;;;;;;;;;;;;;;;;;5155797;27;45749;-82
2022/08/19 01:04:04;;;;;;;;;;;;;;;;;;5149086;27;46354;-82
2022/08/19 01:06:31;;;;;;;;;;;;;;;;;;5139880;27;46702;-83
2022/08/19 01:08:57;;;;;;;;;;;;;;;;;;5144424;27;43696;-82
2022/08/19 01:11:23;;;;;;;;;;;;;;;;;;5145731;27;47322;-82
2022/08/19 01:13:49;;;;;;;;;;;;;;;;;;5156288;27;46988;-82
2022/08/19 01:16:16;;;;;;;;;;;;;;;;;;5139386;27;43524;-83
2022/08/19 01:18:42;;;;;;;;;;;;;;;;;;5154482;27;47067;-82
2022/08/19 01:21:08;;;;;;;;;;;;;;;;;;5148721;27;43618;-82
2022/08/19 01:23:44;;;;;;;;;;;;;;;;;;5136598;27;46156;-82
2022/08/19 01:26:10;;;;;;;;;;;;;;;;;;5136012;27;46357;-82
2022/08/19 01:28:36;;;;;;;;;;;;;;;;;;5141300;27;42627;-83
2022/08/19 01:31:05;;;;;;;;;;;;;;;;;;5143178;27;46015;-83
2022/08/19 01:33:33;;;;;;;;;;;;;;;;;;5157741;27;46923;-82
2022/08/19 01:35:59;;;;;;;;;;;;;;;;;;5149353;27;42936;-82
2022/08/19 01:38:25;;;;;;;;;;;;;;;;;;5137590;27;47527;-82
2022/08/19 01:40:52;;;;;;;;;;;;;;;;;;5133844;27;43744;-82
2022/08/19 01:43:18;;;;;;;;;;;;;;;;;;5142691;27;45215;-82
2022/08/19 01:45:45;;;;;;;;;;;;;;;;;;5133312;27;47187;-82
2022/08/19 01:48:11;;;;;;;;;;;;;;;;;;5147476;27;44093;-81
2022/08/19 01:50:37;;;;;;;;;;;;;;;;;;5140812;27;46418;-81
2022/08/19 01:53:04;;;;;;;;;;;;;;;;;;5152814;27;46962;-82
2022/08/19 01:55:32;;;;;;;;;;;;;;;;;;5145118;27;42959;-82
2022/08/19 01:57:58;;;;;;;;;;;;;;;;;;5140310;27;46316;-82
2022/08/19 02:00:24;;;;;;;;;;;;;;;;;;5150768;27;35605;-82
2022/08/19 02:02:51;;;;;;;;;;;;;;;;;;5147784;27;45023;-82
2022/08/19 02:05:18;;;;;;;;;;;;;;;;;;5153891;27;46552;-82
2022/08/19 02:07:44;;;;;;;;;;;;;;;;;;5150536;27;44197;-82
2022/08/19 02:10:14;;;;;;;;;;;;;;;;;;5112620;22;44479;-82
2022/08/19 02:12:42;;;;;;;;;;;;;;;;;;5089650;28;48812;-82
2022/08/19 02:15:08;;;;;;;;;;;;;;;;;;5087876;28;45596;-82
2022/08/19 02:17:34;;;;;;;;;;;;;;;;;;5089466;28;45849;-82
2022/08/19 02:20:01;;;;;;;;;;;;;;;;;;5085469;28;47892;-82
2022/08/19 02:22:27;;;;;;;;;;;;;;;;;;5088116;28;47326;-82
2022/08/19 02:24:53;;;;;;;;;;;;;;;;;;5089473;28;46798;-82
2022/08/19 02:27:19;;;;;;;;;;;;;;;;;;5088800;28;43546;-81
2022/08/19 02:29:46;;;;;;;;;;;;;;;;;;5093206;28;46399;-82
2022/08/19 02:32:13;;;;;;;;;;;;;;;;;;5086093;28;46837;-82
2022/08/19 02:34:39;;;;;;;;;;;;;;;;;;5087863;28;44017;-81
2022/08/19 02:37:05;;;;;;;;;;;;;;;;;;5087004;28;47600;-81
2022/08/19 02:39:31;;;;;;;;;;;;;;;;;;5087198;28;46802;-81
2022/08/19 02:41:59;;;;;;;;;;;;;;;;;;5086000;28;44092;-82
2022/08/19 02:44:25;;;;;;;;;;;;;;;;;;5088438;28;46951;-81
2022/08/19 02:46:56;;;;;;;;;;;;;;;;;;5088266;28;45360;-81
2022/08/19 02:49:22;;;;;;;;;;;;;;;;;;5088747;28;46431;-81
2022/08/19 02:51:49;;;;;;;;;;;;;;;;;;5088800;28;47001;-81
2022/08/19 02:54:15;;;;;;;;;;;;;;;;;;5086198;28;43609;-81
2022/08/19 02:56:41;;;;;;;;;;;;;;;;;;5089225;28;46408;-82
2022/08/19 02:59:10;;;;;;;;;;;;;;;;;;5088339;28;45344;-82
2022/08/19 03:01:36;;;;;;;;;;;;;;;;;;5087590;28;44051;-82
2022/08/19 03:04:03;;;;;;;;;;;;;;;;;;5088372;28;46752;-82
2022/08/19 03:06:29;;;;;;;;;;;;;;;;;;5088006;28;43713;-82
2022/08/19 03:08:55;;;;;;;;;;;;;;;;;;5085570;28;46438;-82
2022/08/19 03:11:21;;;;;;;;;;;;;;;;;;5087301;28;46544;-81
2022/08/19 03:13:51;;;;;;;;;;;;;;;;;;5093153;28;42937;-81
2022/08/19 03:16:17;;;;;;;;;;;;;;;;;;5090482;28;46222;-82
2022/08/19 03:18:43;;;;;;;;;;;;;;;;;;5091746;28;45488;-83
2022/08/19 03:21:09;;;;;;;;;;;;;;;;;;5086857;28;44198;-82
2022/08/19 03:23:37;;;;;;;;;;;;;;;;;;5091388;28;47225;-82
2022/08/19 03:26:04;;;;;;;;;;;;;;;;;;5090508;28;45213;-82
2022/08/19 03:28:41;;;;;;;;;;;;;;;;;;5090849;28;46093;-82
2022/08/19 03:31:14;;;;;;;;;;;;;;;;;;5088703;28;46975;-83
2022/08/19 03:34:00;;;;;;;;;;;;;;;;;;5082231;28;20404;-82
2022/08/19 03:36:27;;;;;;;;;;;;;;;;;;5087989;28;44006;-82
2022/08/19 03:38:54;;;;;;;;;;;;;;;;;;5091940;27;46746;-81
2022/08/19 03:41:21;;;;;;;;;;;;;;;;;;5088116;28;42245;-82
2022/08/19 03:43:48;;;;;;;;;;;;;;;;;;5088650;28;46402;-82
2022/08/19 03:46:14;;;;;;;;;;;;;;;;;;5084086;28;46946;-82
2022/08/19 03:48:40;;;;;;;;;;;;;;;;;;5086398;28;44034;-82
2022/08/19 03:51:07;;;;;;;;;;;;;;;;;;5085647;28;44177;-81
2022/08/19 03:53:33;;;;;;;;;;;;;;;;;;5087012;28;44496;-82
2022/08/19 03:55:59;;;;;;;;;;;;;;;;;;5089984;28;45221;-82
2022/08/19 03:58:28;;;;;;;;;;;;;;;;;;5089080;28;45831;-81
2022/08/19 04:00:55;;;;;;;;;;;;;;;;;;5082171;28;43679;-82
2022/08/19 04:03:21;;;;;;;;;;;;;;;;;;5087125;28;46240;-82
2022/08/19 04:05:47;;;;;;;;;;;;;;;;;;5086806;28;45041;-82
2022/08/19 04:08:15;;;;;;;;;;;;;;;;;;5083793;28;41247;-83
2022/08/19 04:10:41;;;;;;;;;;;;;;;;;;5083010;28;48166;-82
2022/08/19 04:13:08;;;;;;;;;;;;;;;;;;5086836;28;44778;-81
2022/08/19 04:15:39;;;;;;;;;;;;;;;;;;5086655;28;46228;-82
2022/08/19 04:18:07;;;;;;;;;;;;;;;;;;5085264;28;47346;-83
2022/08/19 04:20:33;;;;;;;;;;;;;;;;;;5085030;28;44623;-81
2022/08/19 04:23:00;;;;;;;;;;;;;;;;;;5086003;28;47488;-82
2022/08/19 04:25:26;;;;;;;;;;;;;;;;;;5086207;28;46969;-81
2022/08/19 04:27:52;;;;;;;;;;;;;;;;;;5089282;28;42329;-81
2022/08/19 04:30:19;;;;;;;;;;;;;;;;;;5085300;28;43736;-82
2022/08/19 04:32:45;;;;;;;;;;;;;;;;;;5087294;28;43580;-82
2022/08/19 04:35:11;;;;;;;;;;;;;;;;;;5089614;28;46908;-82
2022/08/19 04:37:42;;;;;;;;;;;;;;;;;;5088509;28;46629;-83
2022/08/19 04:42:54;;;;;;;;;;;;;;;;;;5085100;28;47446;-81
2022/08/19 04:45:21;;;;;;;;;;;;;;;;;;5093780;28;48472;-82
2022/08/19 04:47:48;;;;;;;;;;;;;;;;;;5089822;28;44837;-81
2022/08/19 04:50:24;;;;;;;;;;;;;;;;;;5081933;28;45620;-80
2022/08/19 04:52:50;;;;;;;;;;;;;;;;;;5089582;28;46949;-81
2022/08/19 04:55:17;;;;;;;;;;;;;;;;;;5089794;28;46041;-82
2022/08/19 04:57:44;;;;;;;;;;;;;;;;;;5090470;28;47774;-81
2022/08/19 05:00:10;;;;;;;;;;;;;;;;;;5092276;28;40948;-82
2022/08/19 05:02:36;;;;;;;;;;;;;;;;;;5094717;27;44670;-82
2022/08/19 05:05:02;;;;;;;;;;;;;;;;;;5087325;28;46958;-82
2022/08/19 05:07:29;;;;;;;;;;;;;;;;;;5084285;28;44613;-82
2022/08/19 05:09:55;;;;;;;;;;;;;;;;;;5088780;28;47560;-81
2022/08/19 05:12:24;;;;;;;;;;;;;;;;;;5087943;28;46226;-81
2022/08/19 05:14:56;;;;;;;;;;;;;;;;;;5090016;28;42257;-82
2022/08/19 05:17:22;;;;;;;;;;;;;;;;;;5088880;28;45345;-82
2022/08/19 05:22:38;;;;;;;;;;;;;;;;;;5088463;28;47468;-80
2022/08/19 05:25:05;;;;;;;;;;;;;;;;;;5089142;28;47018;-81
2022/08/19 05:27:38;;;;;;;;;;;;;;;;;;5089425;28;41197;-81
2022/08/19 05:30:04;;;;;;;;;;;;;;;;;;5085459;28;45497;-82
2022/08/19 05:32:31;;;;;;;;;;;;;;;;;;5087123;28;48569;-82
2022/08/19 05:34:57;;;;;;;;;;;;;;;;;;5088994;28;45145;-82
2022/08/19 05:37:26;;;;;;;;;;;;;;;;;;5086822;28;44440;-82
2022/08/19 05:39:52;;;;;;;;;;;;;;;;;;5085839;28;43000;-81
2022/08/19 05:42:20;;;;;;;;;;;;;;;;;;5087349;28;47631;-81
2022/08/19 05:44:48;;;;;;;;;;;;;;;;;;5087450;28;48075;-82
2022/08/19 05:47:15;;;;;;;;;;;;;;;;;;5088445;28;43619;-81
2022/08/19 05:49:41;;;;;;;;;;;;;;;;;;5087189;28;47615;-81
2022/08/19 05:52:07;;;;;;;;;;;;;;;;;;5088178;28;45531;-81
2022/08/19 05:54:33;;;;;;;;;;;;;;;;;;5088670;28;44700;-81
2022/08/19 05:57:00;;;;;;;;;;;;;;;;;;5088438;28;47497;-81
2022/08/19 05:59:26;;;;;;;;;;;;;;;;;;5088157;28;48232;-80
2022/08/19 06:01:54;;;;;;;;;;;;;;;;;;5087220;28;46385;-81
2022/08/19 06:04:20;;;;;;;;;;;;;;;;;;5083815;28;45221;-81
2022/08/19 06:06:46;;;;;;;;;;;;;;;;;;5084744;28;43695;-82
2022/08/19 06:09:12;;;;;;;;;;;;;;;;;;5082040;28;44522;-81
2022/08/19 06:11:39;;;;;;;;;;;;;;;;;;5091480;28;46847;-81
2022/08/19 06:14:07;;;;;;;;;;;;;;;;;;5087772;28;43665;-82
2022/08/19 06:16:34;;;;;;;;;;;;;;;;;;5087511;28;46327;-82
2022/08/19 06:19:01;;;;;;;;;;;;;;;;;;5086017;28;48478;-82
2022/08/19 06:21:27;;;;;;;;;;;;;;;;;;5086298;28;45504;-81
2022/08/19 06:23:54;;;;;;;;;;;;;;;;;;5089370;28;45185;-81
2022/08/19 06:26:20;;;;;;;;;;;;;;;;;;5086296;28;41544;-81
2022/08/19 06:28:46;;;;;;;;;;;;;;;;;;5085157;28;44365;-82
2022/08/19 06:31:13;;;;;;;;;;;;;;;;;;5102552;27;47078;-82
2022/08/19 06:33:40;;;;;;;;;;;;;;;;;;5086295;28;43702;-82
2022/08/19 06:36:06;;;;;;;;;;;;;;;;;;5083865;28;47521;-82
2022/08/19 06:38:33;;;;;;;;;;;;;;;;;;5087122;28;46096;-82
2022/08/19 06:40:59;;;;;;;;;;;;;;;;;;5086762;28;43610;-82
2022/08/19 06:43:26;;;;;;;;;;;;;;;;;;5084707;28;47142;-82
2022/08/19 06:45:53;;;;;;;;;;;;;;;;;;5085033;28;45020;-82
2022/08/19 06:48:22;;;;;;;;;;;;;;;;;;5084578;28;46775;-82
2022/08/19 06:50:49;;;;;;;;;;;;;;;;;;5088398;28;47305;-82
2022/08/19 06:53:17;;;;;;;;;;;;;;;;;;5087027;28;45454;-82
2022/08/19 06:55:43;;;;;;;;;;;;;;;;;;5085649;28;47527;-82
2022/08/19 06:58:10;;;;;;;;;;;;;;;;;;5085086;28;45536;-82
2022/08/19 07:00:36;;;;;;;;;;;;;;;;;;5088114;28;44771;-83
2022/08/19 07:03:02;;;;;;;;;;;;;;;;;;5089224;28;44462;-83
2022/08/19 07:05:36;;;;;;;;;;;;;;;;;;5086727;28;42857;-83
2022/08/19 07:08:06;;;;;;;;;;;;;;;;;;5081774;28;48678;-84
2022/08/19 07:10:35;;;;;;;;;;;;;;;;;;5086690;28;46518;-83
2022/08/19 07:13:01;;;;;;;;;;;;;;;;;;5086463;28;42661;-84
2022/08/19 07:15:27;;;;;;;;;;;;;;;;;;5085249;28;47596;-84
2022/08/19 07:17:55;;;;;;;;;;;;;;;;;;5087195;28;45123;-84
2022/08/19 07:20:21;;;;;;;;;;;;;;;;;;5088298;28;42643;-84
2022/08/19 07:22:48;;;;;;;;;;;;;;;;;;5084793;28;46143;-83
2022/08/19 07:25:15;;;;;;;;;;;;;;;;;;5086463;28;44632;-83
2022/08/19 07:27:42;;;;;;;;;;;;;;;;;;5086317;28;47444;-83
2022/08/19 07:30:11;;;;;;;;;;;;;;;;;;5081708;28;48186;-83
2022/08/19 07:32:37;;;;;;;;;;;;;;;;;;5088669;28;44877;-83
2022/08/19 07:35:05;;;;;;;;;;;;;;;;;;5087878;28;44503;-84
2022/08/19 07:37:46;;;;;;;;;;;;;;;;;;5097358;28;46076;-83
2022/08/19 07:40:13;;;;;;;;;;;;;;;;;;5091429;28;42890;-83
2022/08/19 07:42:39;;;;;;;;;;;;;;;;;;5090343;28;43936;-83
2022/08/19 07:45:06;;;;;;;;;;;;;;;;;;5088561;28;46876;-83
2022/08/19 07:47:45;;;;;;;;;;;;;;;;;;5081618;28;44654;-83
2022/08/19 07:50:15;;;;;;;;;;;;;;;;;;5094597;28;46647;-83
2022/08/19 07:52:51;;;;;;;;;;;;;;;;;;5091704;28;42571;-83
2022/08/19 07:55:17;;;;;;;;;;;;;;;;;;5091877;28;46073;-83
2022/08/19 07:58:04;;;;;;;;;;;;;;;;;;5093535;28;19959;-83
2022/08/19 08:00:31;;;;;;;;;;;;;;;;;;5091192;28;43153;-83
2022/08/19 08:02:57;;;;;;;;;;;;;;;;;;5091907;28;44762;-83
2022/08/19 08:10:54;;;;;;;;;;;;;;;;;;5097394;28;45426;-83
2022/08/19 08:13:22;;;;;;;;;;;;;;;;;;5095996;28;42486;-83
2022/08/19 08:15:49;;;;;;;;;;;;;;;;;;5095614;28;46532;-82
2022/08/19 08:18:15;;;;;;;;;;;;;;;;;;5107541;27;46969;-83
2022/08/19 08:20:42;;;;;;;;;;;;;;;;;;5098047;27;41939;-83
2022/08/19 08:23:28;;;;;;;;;;;;;;;;;;5096746;28;46421;-83
2022/08/19 08:25:54;;;;;;;;;;;;;;;;;;5094931;28;46868;-83
2022/08/19 08:28:21;;;;;;;;;;;;;;;;;;5091906;28;43732;-82
2022/08/19 08:30:47;;;;;;;;;;;;;;;;;;5093256;27;46349;-83
2022/08/19 08:33:14;;;;;;;;;;;;;;;;;;5097077;28;45882;-83
2022/08/19 08:35:45;;;;;;;;;;;;;;;;;;5095543;28;19952;-83
2022/08/19 08:38:11;;;;;;;;;;;;;;;;;;5094222;28;45325;-83
2022/08/19 08:40:38;;;;;;;;;;;;;;;;;;5096285;28;41759;-83
2022/08/19 08:43:04;;;;;;;;;;;;;;;;;;5095828;28;44636;-83
2022/08/19 08:45:30;;;;;;;;;;;;;;;;;;5097885;28;47702;-82
2022/08/19 08:47:58;;;;;;;;;;;;;;;;;;5096948;28;43938;-83
2022/08/19 08:50:25;;;;;;;;;;;;;;;;;;5099047;28;47057;-83
2022/08/19 08:52:55;;;;;;;;;;;;;;;;;;5106415;27;46718;-83
2022/08/19 08:55:22;;;;;;;;;;;;;;;;;;5097699;28;46428;-82
2022/08/19 08:57:48;;;;;;;;;;;;;;;;;;5094863;28;49632;-83
2022/08/19 09:00:14;;;;;;;;;;;;;;;;;;5102710;28;43724;-83
2022/08/19 09:02:41;;;;;;;;;;;;;;;;;;5097233;28;46353;-84
2022/08/19 09:05:09;;;;;;;;;;;;;;;;;;5093504;28;47135;-84
2022/08/19 09:07:36;;;;;;;;;;;;;;;;;;5096426;28;43499;-82
2022/08/19 09:10:03;;;;;;;;;;;;;;;;;;5095510;28;46768;-83
2022/08/19 09:12:30;;;;;;;;;;;;;;;;;;5091420;28;46971;-84
2022/08/19 09:14:56;;;;;;;;;;;;;;;;;;5099824;27;43011;-84
2022/08/19 09:17:33;;;;;;;;;;;;;;;;;;5105416;27;45918;-84
2022/08/19 09:20:03;;;;;;;;;;;;;;;;;;5101289;22;43909;-83
2022/08/19 09:22:43;;;;;;;;;;;;;;;;;;5078439;28;43787;-83
2022/08/19 09:25:09;;;;;;;;;;;;;;;;;;5080581;28;48178;-83
2022/08/19 09:27:37;;;;;;;;;;;;;;;;;;5095971;28;43608;-83
2022/08/19 09:30:08;;;;;;;;;;;;;;;;;;5097329;28;45214;-84
2022/08/19 09:32:34;;;;;;;;;;;;;;;;;;5095624;28;45237;-83
2022/08/19 09:35:01;;;;;;;;;;;;;;;;;;5114518;27;44817;-83
2022/08/19 09:37:27;;;;;;;;;;;;;;;;;;5098020;28;46452;-83
2022/08/19 09:39:53;;;;;;;;;;;;;;;;;;5105060;28;43252;-84
2022/08/19 09:42:20;;;;;;;;;;;;;;;;;;5116091;27;47253;-84
2022/08/19 09:44:55;;;;;;;;;;;;;;;;;;5100587;28;47893;-84
2022/08/19 09:47:21;;;;;;;;;;;;;;;;;;5098775;28;43831;-84
2022/08/19 09:49:48;;;;;;;;;;;;;;;;;;5123911;27;46259;-84
2022/08/19 09:52:15;;;;;;;;;;;;;;;;;;5108886;27;44751;-84
2022/08/19 09:54:42;;;;;;;;;;;;;;;;;;5100166;28;44798;-83
2022/08/19 09:57:09;;;;;;;;;;;;;;;;;;5099467;28;46802;-84
2022/08/19 09:59:35;;;;;;;;;;;;;;;;;;5095847;27;45315;-83
2022/08/19 10:02:01;;;;;;;;;;;;;;;;;;5117441;27;45456;-83
2022/08/19 10:07:14;;;;;;;;;;;;;;;;;;5113116;27;43833;-84
2022/08/19 10:09:40;;;;;;;;;;;;;;;;;;5112558;27;46014;-83
2022/08/19 10:12:07;;;;;;;;;;;;;;;;;;5093035;28;46797;-84
2022/08/19 10:14:36;;;;;;;;;;;;;;;;;;5115890;27;42369;-84
2022/08/19 10:17:02;;;;;;;;;;;;;;;;;;5112408;27;45192;-84
2022/08/19 10:19:35;;;;;;;;;;;;;;;;;;5095234;28;47182;-84
2022/08/19 10:22:02;;;;;;;;;;;;;;;;;;5098038;28;41153;-84
2022/08/19 10:24:28;;;;;;;;;;;;;;;;;;5105856;28;45101;-84
2022/08/19 10:26:54;;;;;;;;;;;;;;;;;;5093857;28;41194;-85
2022/08/19 10:29:25;;;;;;;;;;;;;;;;;;5110766;27;46165;-84
2022/08/19 10:31:59;;;;;;;;;;;;;;;;;;5106459;27;48076;-84
2022/08/19 10:34:27;;;;;;;;;;;;;;;;;;5096748;27;41770;-84
2022/08/19 10:36:56;;;;;;;;;;;;;;;;;;5113786;27;47554;-83
2022/08/19 10:39:29;;;;;;;;;;;;;;;;;;5094027;28;45452;-83
2022/08/19 10:41:56;;;;;;;;;;;;;;;;;;5094105;28;43590;-83
2022/08/19 10:44:23;;;;;;;;;;;;;;;;;;5099694;27;47024;-83
2022/08/19 10:46:58;;;;;;;;;;;;;;;;;;5116157;27;42639;-84
2022/08/19 10:49:26;;;;;;;;;;;;;;;;;;5095520;28;44743;-84
2022/08/19 10:57:30;;;;;;;;;;;;;;;;;;5111979;27;46495;-84
2022/08/19 11:00:17;;;;;;;;;;;;;;;;;;5100729;28;19938;-82
2022/08/19 11:02:43;;;;;;;;;;;;;;;;;;5107318;27;44829;-80
2022/08/19 11:05:10;;;;;;;;;;;;;;;;;;5089041;28;45255;-80
2022/08/19 11:07:38;;;;;;;;;;;;;;;;;;5095867;28;42500;-82
2022/08/19 11:10:10;;;;;;;;;;;;;;;;;;5092542;28;46295;-82
2022/08/19 11:12:41;;;;;;;;;;;;;;;;;;5111141;27;46524;-81
2022/08/19 11:15:08;;;;;;;;;;;;;;;;;;5113314;28;45544;-81
2022/08/19 11:17:35;;;;;;;;;;;;;;;;;;5108710;27;47512;-80
2022/08/19 11:20:04;;;;;;;;;;;;;;;;;;5073339;28;48402;-80
2022/08/19 11:22:30;;;;;;;;;;;;;;;;;;5086231;28;42417;-80
2022/08/19 11:25:00;;;;;;;;;;;;;;;;;;5111179;28;46428;-79
2022/08/19 11:27:28;;;;;;;;;;;;;;;;;;5094759;28;47418;-80
2022/08/19 11:29:54;;;;;;;;;;;;;;;;;;5091774;28;47453;-80
2022/08/19 11:32:21;;;;;;;;;;;;;;;;;;5090949;28;46534;-81
2022/08/19 11:34:47;;;;;;;;;;;;;;;;;;5112648;28;45071;-81
2022/08/19 11:37:13;;;;;;;;;;;;;;;;;;5094955;28;47505;-82
2022/08/19 11:39:39;;;;;;;;;;;;;;;;;;5092637;28;46283;-82
2022/08/19 11:42:54;;;;;;;;;;;;;;;;;;5092981;28;45201;-82
2022/08/19 11:44:52;;;;;;;;;;;;;;;;;;5111609;27;47795;-82
2022/08/19 11:47:18;;;;;;;;;;;;;;;;;;5093214;28;47019;-82
2022/08/19 11:49:45;;;;;;;;;;;;;;;;;;5093496;28;43796;-82
2022/08/19 11:52:11;;;;;;;;;;;;;;;;;;5091590;28;49291;-81
2022/08/19 11:54:37;;;;;;;;;;;;;;;;;;5110250;27;43855;-82
2022/08/19 11:57:03;;;;;;;;;;;;;;;;;;5112102;28;46442;-81
2022/08/19 11:59:30;;;;;;;;;;;;;;;;;;5111776;28;47318;-82
2022/08/19 12:01:56;;;;;;;;;;;;;;;;;;5111914;27;41994;-82
2022/08/19 12:04:25;;;;;;;;;;;;;;;;;;5077649;28;46501;-82
2022/08/19 12:06:52;;;;;;;;;;;;;;;;;;5097141;27;47172;-82
2022/08/19 12:09:19;;;;;;;;;;;;;;;;;;5091831;28;43649;-82
2022/08/19 12:11:48;;;;;;;;;;;;;;;;;;5091368;28;47687;-82
2022/08/19 12:14:21;;;;;;;;;;;;;;;;;;5092744;28;43444;-81
2022/08/19 12:16:48;;;;;;;;;;;;;;;;;;5093465;28;46350;-81
2022/08/19 12:19:17;;;;;;;;;;;;;;;;;;5110182;27;45379;-81
2022/08/19 12:21:47;;;;;;;;;;;;;;;;;;5106271;27;43913;-80
2022/08/19 12:24:13;;;;;;;;;;;;;;;;;;5111575;28;44762;-79
2022/08/19 12:26:40;;;;;;;;;;;;;;;;;;5109413;27;48119;-80
2022/08/19 12:29:18;;;;;;;;;;;;;;;;;;5089487;27;40635;-80
2022/08/19 12:31:48;;;;;;;;;;;;;;;;;;5092678;28;45905;-80
2022/08/19 12:34:14;;;;;;;;;;;;;;;;;;5086410;27;33486;-80
2022/08/19 12:36:41;;;;;;;;;;;;;;;;;;5103392;27;47606;-81
2022/08/19 12:39:08;;;;;;;;;;;;;;;;;;5111593;28;48551;-81
2022/08/19 12:41:36;;;;;;;;;;;;;;;;;;5092245;28;45286;-81
2022/08/19 12:44:02;;;;;;;;;;;;;;;;;;5093843;28;44884;-81
2022/08/19 12:46:28;;;;;;;;;;;;;;;;;;5111714;28;46977;-81
2022/08/19 12:48:55;;;;;;;;;;;;;;;;;;5092947;28;43584;-81
2022/08/19 12:51:21;;;;;;;;;;;;;;;;;;5092137;27;46772;-81
2022/08/19 12:53:47;;;;;;;;;;;;;;;;;;5114116;28;46871;-80
2022/08/19 12:56:14;;;;;;;;;;;;;;;;;;5094713;28;46458;-80
2022/08/19 12:58:41;;;;;;;;;;;;;;;;;;5094667;28;46872;-81
2022/08/19 13:01:14;;;;;;;;;;;;;;;;;;5096178;28;43853;-80
2022/08/19 13:03:40;;;;;;;;;;;;;;;;;;5095043;28;46150;-79
2022/08/19 13:06:07;;;;;;;;;;;;;;;;;;5094987;28;46414;-80
2022/08/19 13:08:33;;;;;;;;;;;;;;;;;;5090610;28;43810;-80
2022/08/19 13:11:00;;;;;;;;;;;;;;;;;;5093125;27;46451;-79
2022/08/19 13:13:26;;;;;;;;;;;;;;;;;;5112511;28;46995;-79
2022/08/19 13:15:52;;;;;;;;;;;;;;;;;;5112825;28;43428;-79
2022/08/19 13:18:19;;;;;;;;;;;;;;;;;;5093354;28;46195;-79
2022/08/19 13:20:45;;;;;;;;;;;;;;;;;;5094635;28;46233;-80
2022/08/19 13:23:11;;;;;;;;;;;;;;;;;;5096031;28;44610;-80
2022/08/19 13:25:38;;;;;;;;;;;;;;;;;;5114530;28;48105;-80
2022/08/19 13:28:06;;;;;;;;;;;;;;;;;;5113710;28;43695;-80
2022/08/19 13:33:17;;;;;;;;;;;;;;;;;;5111466;28;46506;-80
2022/08/19 13:35:43;;;;;;;;;;;;;;;;;;5085785;28;43748;-80
2022/08/19 13:38:10;;;;;;;;;;;;;;;;;;5104440;27;47783;-80
2022/08/19 13:40:37;;;;;;;;;;;;;;;;;;5106600;27;44671;-80
2022/08/19 13:43:04;;;;;;;;;;;;;;;;;;5106796;27;46526;-80
2022/08/19 13:45:42;;;;;;;;;;;;;;;;;;5086212;27;46974;-80
2022/08/19 13:48:09;;;;;;;;;;;;;;;;;;5086746;28;42238;-81
2022/08/19 13:50:35;;;;;;;;;;;;;;;;;;5110629;28;46380;-80
2022/08/19 13:53:02;;;;;;;;;;;;;;;;;;5108455;28;46998;-81
2022/08/19 13:55:28;;;;;;;;;;;;;;;;;;5107007;28;43858;-81
2022/08/19 13:57:54;;;;;;;;;;;;;;;;;;5088240;28;47010;-81
2022/08/19 14:00:21;;;;;;;;;;;;;;;;;;5113723;28;45808;-81
2022/08/19 14:02:47;;;;;;;;;;;;;;;;;;5093215;28;44574;-83
2022/08/19 14:05:13;;;;;;;;;;;;;;;;;;5089325;28;45052;-81
2022/08/19 14:07:40;;;;;;;;;;;;;;;;;;5087348;28;43717;-81
2022/08/19 14:10:07;;;;;;;;;;;;;;;;;;5091821;28;47505;-83
2022/08/19 14:12:33;;;;;;;;;;;;;;;;;;5089984;28;45163;-82
2022/08/19 14:14:59;;;;;;;;;;;;;;;;;;5085720;28;44041;-82
2022/08/19 14:17:26;;;;;;;;;;;;;;;;;;5090012;28;46423;-82
2022/08/19 14:19:52;;;;;;;;;;;;;;;;;;5093827;28;46967;-82
2022/08/19 14:22:18;;;;;;;;;;;;;;;;;;5085912;28;44074;-82
2022/08/19 14:24:47;;;;;;;;;;;;;;;;;;5092273;28;48295;-82
2022/08/19 14:27:14;;;;;;;;;;;;;;;;;;5109263;27;43224;-82
2022/08/19 14:29:40;;;;;;;;;;;;;;;;;;5113936;27;47261;-82
2022/08/19 14:32:08;;;;;;;;;;;;;;;;;;5090493;27;37045;-82
2022/08/19 14:34:37;;;;;;;;;;;;;;;;;;5089116;28;41687;-82
2022/08/19 14:37:03;;;;;;;;;;;;;;;;;;5118588;27;44328;-82
2022/08/19 14:39:29;;;;;;;;;;;;;;;;;;5111805;27;45391;-81
2022/08/19 14:41:56;;;;;;;;;;;;;;;;;;5089137;28;41953;-81
2022/08/19 14:44:22;;;;;;;;;;;;;;;;;;5100375;27;45333;-81
2022/08/19 14:46:49;;;;;;;;;;;;;;;;;;5115325;27;42189;-81
2022/08/19 14:49:15;;;;;;;;;;;;;;;;;;5093201;27;43635;-81
2022/08/19 14:51:41;;;;;;;;;;;;;;;;;;5099312;28;46717;-81
2022/08/19 14:54:08;;;;;;;;;;;;;;;;;;5102613;27;45019;-80
2022/08/19 14:56:34;;;;;;;;;;;;;;;;;;5123194;27;44406;-81
2022/08/19 14:59:00;;;;;;;;;;;;;;;;;;5098666;27;46806;-79
2022/08/19 15:01:27;;;;;;;;;;;;;;;;;;5108425;27;43003;-79
2022/08/19 15:03:54;;;;;;;;;;;;;;;;;;5115934;27;47708;-80
2022/08/19 15:06:21;;;;;;;;;;;;;;;;;;5119032;28;41956;-80
2022/08/19 15:08:47;;;;;;;;;;;;;;;;;;5097510;28;44479;-79
2022/08/19 15:11:14;;;;;;;;;;;;;;;;;;5095008;28;47312;-80
2022/08/19 15:13:40;;;;;;;;;;;;;;;;;;5105865;27;43739;-80
2022/08/19 15:16:06;;;;;;;;;;;;;;;;;;5094922;28;47569;-80
2022/08/19 15:18:35;;;;;;;;;;;;;;;;;;5094036;28;47273;-80
2022/08/19 15:21:01;;;;;;;;;;;;;;;;;;5100601;28;42391;-80
2022/08/19 15:23:27;;;;;;;;;;;;;;;;;;5111875;28;46443;-80
2022/08/19 15:25:55;;;;;;;;;;;;;;;;;;5115545;28;45120;-77
2022/08/19 15:28:22;;;;;;;;;;;;;;;;;;5092525;28;46391;-79
2022/08/19 15:30:48;;;;;;;;;;;;;;;;;;5094514;27;45032;-80
2022/08/19 15:33:15;;;;;;;;;;;;;;;;;;5106167;27;43150;-80
2022/08/19 15:35:42;;;;;;;;;;;;;;;;;;5083967;28;46960;-80
2022/08/19 15:38:08;;;;;;;;;;;;;;;;;;5106920;27;48212;-79
2022/08/19 15:40:34;;;;;;;;;;;;;;;;;;5079269;28;44716;-80
2022/08/19 15:43:00;;;;;;;;;;;;;;;;;;5093484;28;46414;-79
2022/08/19 15:45:31;;;;;;;;;;;;;;;;;;5092376;28;47433;-79
2022/08/19 15:47:57;;;;;;;;;;;;;;;;;;5094302;28;43612;-79
2022/08/19 15:50:23;;;;;;;;;;;;;;;;;;5109422;28;46931;-80
2022/08/19 15:52:50;;;;;;;;;;;;;;;;;;5089124;27;44887;-80
2022/08/19 15:55:16;;;;;;;;;;;;;;;;;;5091523;28;44483;-80
2022/08/19 16:06:25;;;;;;;;;;;;;;;;;;5111580;27;44574;-80
2022/08/19 16:08:53;;;;;;;;;;;;;;;;;;5094965;28;42369;-80
2022/08/19 16:11:20;;;;;;;;;;;;;;;;;;5106499;28;44628;-80
2022/08/19 16:13:48;;;;;;;;;;;;;;;;;;5093046;28;43365;-80
2022/08/19 16:16:14;;;;;;;;;;;;;;;;;;5094249;28;47394;-80
2022/08/19 16:18:41;;;;;;;;;;;;;;;;;;5094713;28;46982;-80
2022/08/19 16:21:07;;;;;;;;;;;;;;;;;;5107793;27;43435;-79
2022/08/19 16:23:34;;;;;;;;;;;;;;;;;;5093189;27;43925;-79
2022/08/19 16:26:00;;;;;;;;;;;;;;;;;;5080441;28;46951;-79
2022/08/19 16:28:27;;;;;;;;;;;;;;;;;;5112990;27;42283;-82
2022/08/19 16:30:53;;;;;;;;;;;;;;;;;;5114606;27;45753;-81
2022/08/19 16:33:22;;;;;;;;;;;;;;;;;;5092353;27;48292;-81
2022/08/19 16:35:49;;;;;;;;;;;;;;;;;;5092800;28;48242;-81
2022/08/19 16:38:23;;;;;;;;;;;;;;;;;;5098471;28;47108;-81
2022/08/19 16:40:53;;;;;;;;;;;;;;;;;;5105610;27;44553;-81
2022/08/19 16:43:20;;;;;;;;;;;;;;;;;;5108977;27;42996;-81
2022/08/19 16:45:46;;;;;;;;;;;;;;;;;;5106622;27;47872;-81
2022/08/19 16:48:12;;;;;;;;;;;;;;;;;;5102936;28;41951;-81
2022/08/19 16:50:38;;;;;;;;;;;;;;;;;;5094389;28;46219;-81
2022/08/19 16:53:14;;;;;;;;;;;;;;;;;;5116353;28;48479;-81
2022/08/19 16:55:40;;;;;;;;;;;;;;;;;;5090829;27;45340;-81
2022/08/19 16:58:07;;;;;;;;;;;;;;;;;;5109443;27;46461;-81
2022/08/19 17:00:33;;;;;;;;;;;;;;;;;;5115928;27;44084;-81
2022/08/19 17:02:59;;;;;;;;;;;;;;;;;;5090923;28;44597;-83
2022/08/19 17:05:25;;;;;;;;;;;;;;;;;;5096826;28;46966;-83
2022/08/19 17:07:53;;;;;;;;;;;;;;;;;;5095767;28;43728;-84
2022/08/19 17:10:19;;;;;;;;;;;;;;;;;;5095847;27;44775;-83
2022/08/19 17:12:45;;;;;;;;;;;;;;;;;;5095346;28;45049;-82
2022/08/19 17:15:12;;;;;;;;;;;;;;;;;;5085723;28;42222;-83
2022/08/19 17:17:38;;;;;;;;;;;;;;;;;;5096396;28;46827;-83